sensor_id;sensor_type;location;lat;lon;timestamp;P1;durP1;ratioP1;P2;durP2;ratioP2
819;SDS011;392;48.838;2.322;2023-04-28T00:00:52;6.17;;;5.70;;
819;SDS011;392;48.838;2.322;2023-04-28T00:03:21;5.40;;;5.10;;
819;SDS011;392;48.838;2.322;2023-04-28T00:05:48;5.13;;;4.83;;
819;SDS011;392;48.838;2.322;2023-04-28T00:08:15;4.50;;;4.20;;
819;SDS011;392;48.838;2.322;2023-04-28T00:10:43;5.23;;;4.93;;
819;SDS011;392;48.838;2.322;2023-04-28T00:13:10;5.07;;;4.77;;
819;SDS011;392;48.838;2.322;2023-04-28T00:15:38;5.30;;;5.00;;
819;SDS011;392;48.838;2.322;2023-04-28T00:18:05;5.27;;;4.87;;
819;SDS011;392;48.838;2.322;2023-04-28T00:20:33;5.17;;;4.87;;
819;SDS011;392;48.838;2.322;2023-04-28T00:23:01;5.53;;;5.03;;
819;SDS011;392;48.838;2.322;2023-04-28T00:25:28;5.20;;;4.90;;
819;SDS011;392;48.838;2.322;2023-04-28T00:27:56;5.20;;;4.90;;
819;SDS011;392;48.838;2.322;2023-04-28T00:30:23;5.83;;;5.43;;
819;SDS011;392;48.838;2.322;2023-04-28T00:32:50;5.60;;;5.27;;
819;SDS011;392;48.838;2.322;2023-04-28T00:35:18;5.20;;;4.90;;
819;SDS011;392;48.838;2.322;2023-04-28T00:37:47;5.20;;;4.90;;
819;SDS011;392;48.838;2.322;2023-04-28T00:40:15;6.10;;;5.60;;
819;SDS011;392;48.838;2.322;2023-04-28T00:42:42;4.83;;;4.60;;
819;SDS011;392;48.838;2.322;2023-04-28T00:45:10;5.47;;;5.10;;
819;SDS011;392;48.838;2.322;2023-04-28T00:47:37;4.80;;;4.50;;
819;SDS011;392;48.838;2.322;2023-04-28T00:50:05;5.23;;;4.93;;
819;SDS011;392;48.838;2.322;2023-04-28T00:52:34;5.60;;;5.20;;
819;SDS011;392;48.838;2.322;2023-04-28T00:55:07;5.20;;;4.87;;
819;SDS011;392;48.838;2.322;2023-04-28T00:57:35;5.50;;;5.20;;
819;SDS011;392;48.838;2.322;2023-04-28T01:00:03;4.40;;;4.20;;
819;SDS011;392;48.838;2.322;2023-04-28T01:02:32;5.30;;;4.90;;
819;SDS011;392;48.838;2.322;2023-04-28T01:05:01;4.40;;;4.10;;
819;SDS011;392;48.838;2.322;2023-04-28T01:07:29;4.50;;;3.90;;
819;SDS011;392;48.838;2.322;2023-04-28T01:09:57;4.50;;;4.10;;
819;SDS011;392;48.838;2.322;2023-04-28T01:12:30;4.90;;;4.60;;
819;SDS011;392;48.838;2.322;2023-04-28T01:14:57;4.63;;;4.33;;
819;SDS011;392;48.838;2.322;2023-04-28T01:17:26;4.53;;;4.27;;
819;SDS011;392;48.838;2.322;2023-04-28T01:19:54;4.40;;;4.10;;
819;SDS011;392;48.838;2.322;2023-04-28T01:22:21;4.13;;;3.83;;
819;SDS011;392;48.838;2.322;2023-04-28T01:24:50;4.17;;;3.97;;
819;SDS011;392;48.838;2.322;2023-04-28T01:27:17;4.17;;;3.97;;
819;SDS011;392;48.838;2.322;2023-04-28T01:29:44;4.90;;;4.50;;
819;SDS011;392;48.838;2.322;2023-04-28T01:32:11;4.20;;;4.00;;
819;SDS011;392;48.838;2.322;2023-04-28T01:34:39;4.77;;;4.47;;
819;SDS011;392;48.838;2.322;2023-04-28T01:37:06;4.70;;;4.40;;
819;SDS011;392;48.838;2.322;2023-04-28T01:39:35;5.13;;;4.83;;
819;SDS011;392;48.838;2.322;2023-04-28T01:42:04;4.60;;;4.30;;
819;SDS011;392;48.838;2.322;2023-04-28T01:44:32;4.60;;;4.30;;
819;SDS011;392;48.838;2.322;2023-04-28T01:46:59;4.57;;;4.27;;
819;SDS011;392;48.838;2.322;2023-04-28T01:49:26;5.33;;;4.93;;
819;SDS011;392;48.838;2.322;2023-04-28T01:51:54;5.27;;;4.87;;
819;SDS011;392;48.838;2.322;2023-04-28T01:54:21;4.97;;;4.67;;
819;SDS011;392;48.838;2.322;2023-04-28T01:56:49;5.30;;;4.80;;
819;SDS011;392;48.838;2.322;2023-04-28T01:59:19;4.40;;;4.10;;
819;SDS011;392;48.838;2.322;2023-04-28T02:01:47;4.80;;;4.50;;
819;SDS011;392;48.838;2.322;2023-04-28T02:04:14;4.53;;;4.23;;
819;SDS011;392;48.838;2.322;2023-04-28T02:06:41;4.60;;;4.30;;
819;SDS011;392;48.838;2.322;2023-04-28T02:09:11;3.80;;;3.60;;
819;SDS011;392;48.838;2.322;2023-04-28T02:11:38;4.00;;;3.80;;
819;SDS011;392;48.838;2.322;2023-04-28T02:14:06;3.80;;;3.60;;
819;SDS011;392;48.838;2.322;2023-04-28T02:16:35;4.10;;;3.90;;
819;SDS011;392;48.838;2.322;2023-04-28T02:19:03;4.33;;;4.10;;
819;SDS011;392;48.838;2.322;2023-04-28T02:21:30;4.40;;;4.10;;
819;SDS011;392;48.838;2.322;2023-04-28T02:23:57;3.30;;;3.20;;
819;SDS011;392;48.838;2.322;2023-04-28T02:26:25;3.70;;;3.50;;
819;SDS011;392;48.838;2.322;2023-04-28T02:28:52;3.53;;;3.33;;
819;SDS011;392;48.838;2.322;2023-04-28T02:31:19;3.80;;;3.60;;
819;SDS011;392;48.838;2.322;2023-04-28T02:33:48;3.60;;;3.40;;
819;SDS011;392;48.838;2.322;2023-04-28T02:36:15;3.90;;;3.60;;
819;SDS011;392;48.838;2.322;2023-04-28T02:38:42;3.77;;;3.57;;
819;SDS011;392;48.838;2.322;2023-04-28T02:41:10;3.30;;;3.20;;
819;SDS011;392;48.838;2.322;2023-04-28T02:43:39;3.20;;;3.00;;
819;SDS011;392;48.838;2.322;2023-04-28T02:46:06;2.97;;;2.87;;
819;SDS011;392;48.838;2.322;2023-04-28T02:48:34;3.33;;;3.23;;
819;SDS011;392;48.838;2.322;2023-04-28T02:51:03;3.03;;;2.93;;
819;SDS011;392;48.838;2.322;2023-04-28T02:53:32;3.40;;;3.30;;
819;SDS011;392;48.838;2.322;2023-04-28T02:55:59;2.90;;;2.80;;
819;SDS011;392;48.838;2.322;2023-04-28T02:58:29;2.97;;;2.87;;
819;SDS011;392;48.838;2.322;2023-04-28T03:00:56;2.13;;;2.13;;
819;SDS011;392;48.838;2.322;2023-04-28T03:03:24;2.70;;;2.60;;
819;SDS011;392;48.838;2.322;2023-04-28T03:05:51;2.60;;;2.50;;
819;SDS011;392;48.838;2.322;2023-04-28T03:08:22;1.90;;;1.90;;
819;SDS011;392;48.838;2.322;2023-04-28T03:10:49;2.37;;;2.17;;
819;SDS011;392;48.838;2.322;2023-04-28T03:13:17;2.37;;;2.27;;
819;SDS011;392;48.838;2.322;2023-04-28T03:15:45;2.40;;;2.30;;
819;SDS011;392;48.838;2.322;2023-04-28T03:18:12;1.90;;;1.90;;
819;SDS011;392;48.838;2.322;2023-04-28T03:20:39;2.10;;;2.07;;
819;SDS011;392;48.838;2.322;2023-04-28T03:23:08;2.27;;;2.17;;
819;SDS011;392;48.838;2.322;2023-04-28T03:25:36;1.90;;;1.90;;
819;SDS011;392;48.838;2.322;2023-04-28T03:28:04;2.00;;;1.90;;
819;SDS011;392;48.838;2.322;2023-04-28T03:30:31;2.00;;;1.90;;
819;SDS011;392;48.838;2.322;2023-04-28T03:32:58;1.97;;;1.90;;
819;SDS011;392;48.838;2.322;2023-04-28T03:35:26;2.10;;;2.00;;
819;SDS011;392;48.838;2.322;2023-04-28T03:37:53;1.90;;;1.90;;
819;SDS011;392;48.838;2.322;2023-04-28T03:40:21;2.87;;;1.90;;
819;SDS011;392;48.838;2.322;2023-04-28T03:43:12;2.00;;;2.00;;
819;SDS011;392;48.838;2.322;2023-04-28T03:45:49;1.83;;;1.73;;
819;SDS011;392;48.838;2.322;2023-04-28T03:48:16;1.90;;;1.80;;
819;SDS011;392;48.838;2.322;2023-04-28T03:50:43;1.67;;;1.67;;
819;SDS011;392;48.838;2.322;2023-04-28T03:53:10;1.60;;;1.60;;
819;SDS011;392;48.838;2.322;2023-04-28T03:55:38;1.80;;;1.80;;
819;SDS011;392;48.838;2.322;2023-04-28T03:58:05;1.43;;;1.43;;
819;SDS011;392;48.838;2.322;2023-04-28T04:00:34;1.50;;;1.50;;
819;SDS011;392;48.838;2.322;2023-04-28T04:03:02;1.70;;;1.70;;
819;SDS011;392;48.838;2.322;2023-04-28T04:05:29;1.87;;;1.77;;
819;SDS011;392;48.838;2.322;2023-04-28T04:07:57;1.70;;;1.60;;
819;SDS011;392;48.838;2.322;2023-04-28T04:10:24;1.80;;;1.70;;
819;SDS011;392;48.838;2.322;2023-04-28T04:12:52;1.53;;;1.53;;
819;SDS011;392;48.838;2.322;2023-04-28T04:15:19;1.30;;;1.30;;
819;SDS011;392;48.838;2.322;2023-04-28T04:17:48;1.47;;;1.37;;
819;SDS011;392;48.838;2.322;2023-04-28T04:20:16;1.60;;;1.60;;
819;SDS011;392;48.838;2.322;2023-04-28T04:22:44;1.30;;;1.30;;
819;SDS011;392;48.838;2.322;2023-04-28T04:25:13;1.57;;;1.57;;
819;SDS011;392;48.838;2.322;2023-04-28T04:27:45;1.43;;;1.33;;
819;SDS011;392;48.838;2.322;2023-04-28T04:30:13;1.37;;;1.37;;
819;SDS011;392;48.838;2.322;2023-04-28T04:32:40;1.67;;;1.67;;
819;SDS011;392;48.838;2.322;2023-04-28T04:35:09;1.50;;;1.50;;
819;SDS011;392;48.838;2.322;2023-04-28T04:37:37;1.33;;;1.33;;
819;SDS011;392;48.838;2.322;2023-04-28T04:40:05;1.67;;;1.57;;
819;SDS011;392;48.838;2.322;2023-04-28T04:42:39;1.47;;;1.37;;
819;SDS011;392;48.838;2.322;2023-04-28T04:45:11;1.70;;;1.60;;
819;SDS011;392;48.838;2.322;2023-04-28T04:47:38;2.40;;;2.30;;
819;SDS011;392;48.838;2.322;2023-04-28T04:50:06;1.33;;;1.33;;
819;SDS011;392;48.838;2.322;2023-04-28T04:52:36;1.50;;;1.50;;
819;SDS011;392;48.838;2.322;2023-04-28T04:55:04;1.00;;;1.00;;
819;SDS011;392;48.838;2.322;2023-04-28T04:57:33;1.30;;;1.30;;
819;SDS011;392;48.838;2.322;2023-04-28T05:00:05;1.40;;;1.40;;
819;SDS011;392;48.838;2.322;2023-04-28T05:02:35;1.80;;;1.70;;
819;SDS011;392;48.838;2.322;2023-04-28T05:05:03;1.60;;;1.60;;
819;SDS011;392;48.838;2.322;2023-04-28T05:07:33;1.57;;;1.50;;
819;SDS011;392;48.838;2.322;2023-04-28T05:10:01;1.50;;;1.40;;
819;SDS011;392;48.838;2.322;2023-04-28T05:12:29;1.60;;;1.50;;
819;SDS011;392;48.838;2.322;2023-04-28T05:14:57;2.47;;;1.50;;
819;SDS011;392;48.838;2.322;2023-04-28T05:17:24;2.10;;;1.53;;
819;SDS011;392;48.838;2.322;2023-04-28T05:19:51;1.50;;;1.40;;
819;SDS011;392;48.838;2.322;2023-04-28T05:22:19;1.63;;;1.53;;
819;SDS011;392;48.838;2.322;2023-04-28T05:24:48;1.73;;;1.63;;
819;SDS011;392;48.838;2.322;2023-04-28T05:27:15;1.20;;;1.20;;
819;SDS011;392;48.838;2.322;2023-04-28T05:29:42;1.63;;;1.63;;
819;SDS011;392;48.838;2.322;2023-04-28T05:32:10;1.40;;;1.30;;
819;SDS011;392;48.838;2.322;2023-04-28T05:34:38;1.30;;;1.30;;
819;SDS011;392;48.838;2.322;2023-04-28T05:37:05;1.50;;;1.40;;
819;SDS011;392;48.838;2.322;2023-04-28T05:39:34;1.40;;;1.40;;
819;SDS011;392;48.838;2.322;2023-04-28T05:42:04;1.80;;;1.70;;
819;SDS011;392;48.838;2.322;2023-04-28T05:44:33;1.80;;;1.80;;
819;SDS011;392;48.838;2.322;2023-04-28T05:47:01;1.67;;;1.57;;
819;SDS011;392;48.838;2.322;2023-04-28T05:49:28;1.93;;;1.93;;
819;SDS011;392;48.838;2.322;2023-04-28T05:51:55;1.50;;;1.50;;
819;SDS011;392;48.838;2.322;2023-04-28T05:54:23;1.93;;;1.83;;
819;SDS011;392;48.838;2.322;2023-04-28T05:56:53;2.00;;;1.90;;
819;SDS011;392;48.838;2.322;2023-04-28T05:59:22;1.67;;;1.67;;
819;SDS011;392;48.838;2.322;2023-04-28T06:01:49;2.10;;;2.00;;
819;SDS011;392;48.838;2.322;2023-04-28T06:04:16;1.60;;;1.60;;
819;SDS011;392;48.838;2.322;2023-04-28T06:06:44;5.27;;;3.30;;
819;SDS011;392;48.838;2.322;2023-04-28T06:09:12;37.67;;;6.43;;
819;SDS011;392;48.838;2.322;2023-04-28T06:11:39;3.10;;;2.10;;
819;SDS011;392;48.838;2.322;2023-04-28T06:14:06;1.70;;;1.70;;
819;SDS011;392;48.838;2.322;2023-04-28T06:16:35;1.83;;;1.83;;
819;SDS011;392;48.838;2.322;2023-04-28T06:19:02;2.10;;;2.00;;
819;SDS011;392;48.838;2.322;2023-04-28T06:21:30;2.10;;;2.10;;
819;SDS011;392;48.838;2.322;2023-04-28T06:23:57;2.10;;;2.00;;
819;SDS011;392;48.838;2.322;2023-04-28T06:26:26;2.10;;;2.00;;
819;SDS011;392;48.838;2.322;2023-04-28T06:28:53;2.23;;;2.13;;
819;SDS011;392;48.838;2.322;2023-04-28T06:31:21;4.50;;;2.17;;
819;SDS011;392;48.838;2.322;2023-04-28T06:33:52;3.50;;;3.20;;
819;SDS011;392;48.838;2.322;2023-04-28T06:36:21;1.83;;;1.73;;
819;SDS011;392;48.838;2.322;2023-04-28T06:38:49;2.27;;;2.07;;
819;SDS011;392;48.838;2.322;2023-04-28T06:41:17;1.77;;;1.70;;
819;SDS011;392;48.838;2.322;2023-04-28T06:43:48;2.13;;;2.03;;
819;SDS011;392;48.838;2.322;2023-04-28T06:46:28;2.00;;;2.00;;
819;SDS011;392;48.838;2.322;2023-04-28T06:48:57;2.20;;;2.10;;
819;SDS011;392;48.838;2.322;2023-04-28T06:51:25;2.27;;;2.17;;
819;SDS011;392;48.838;2.322;2023-04-28T06:53:53;2.27;;;2.17;;
819;SDS011;392;48.838;2.322;2023-04-28T06:56:20;2.00;;;1.90;;
819;SDS011;392;48.838;2.322;2023-04-28T06:58:47;2.00;;;2.00;;
819;SDS011;392;48.838;2.322;2023-04-28T07:01:15;2.30;;;2.20;;
819;SDS011;392;48.838;2.322;2023-04-28T07:03:42;2.30;;;2.23;;
819;SDS011;392;48.838;2.322;2023-04-28T07:06:11;2.50;;;2.30;;
819;SDS011;392;48.838;2.322;2023-04-28T07:08:38;2.13;;;2.03;;
819;SDS011;392;48.838;2.322;2023-04-28T07:11:07;2.50;;;2.30;;
819;SDS011;392;48.838;2.322;2023-04-28T07:13:35;2.40;;;2.30;;
819;SDS011;392;48.838;2.322;2023-04-28T07:16:02;2.37;;;2.17;;
819;SDS011;392;48.838;2.322;2023-04-28T07:18:30;2.63;;;2.43;;
819;SDS011;392;48.838;2.322;2023-04-28T07:20:57;2.90;;;2.60;;
819;SDS011;392;48.838;2.322;2023-04-28T07:23:26;2.40;;;2.30;;
819;SDS011;392;48.838;2.322;2023-04-28T07:25:54;3.13;;;2.50;;
819;SDS011;392;48.838;2.322;2023-04-28T07:28:21;2.70;;;2.50;;
819;SDS011;392;48.838;2.322;2023-04-28T07:30:48;2.70;;;2.60;;
819;SDS011;392;48.838;2.322;2023-04-28T07:33:16;2.67;;;2.47;;
819;SDS011;392;48.838;2.322;2023-04-28T07:35:43;2.50;;;2.40;;
819;SDS011;392;48.838;2.322;2023-04-28T07:38:10;2.40;;;2.30;;
819;SDS011;392;48.838;2.322;2023-04-28T07:40:39;2.20;;;2.10;;
819;SDS011;392;48.838;2.322;2023-04-28T07:43:08;2.40;;;2.30;;
819;SDS011;392;48.838;2.322;2023-04-28T07:48:04;3.30;;;2.40;;
819;SDS011;392;48.838;2.322;2023-04-28T07:50:32;2.10;;;2.00;;
819;SDS011;392;48.838;2.322;2023-04-28T07:53:00;4.13;;;2.40;;
819;SDS011;392;48.838;2.322;2023-04-28T07:55:27;2.40;;;2.30;;
819;SDS011;392;48.838;2.322;2023-04-28T07:57:56;2.60;;;2.40;;
819;SDS011;392;48.838;2.322;2023-04-28T08:00:24;2.20;;;2.10;;
819;SDS011;392;48.838;2.322;2023-04-28T08:02:51;1.80;;;1.70;;
819;SDS011;392;48.838;2.322;2023-04-28T08:05:18;2.30;;;2.20;;
819;SDS011;392;48.838;2.322;2023-04-28T08:07:46;2.70;;;2.53;;
819;SDS011;392;48.838;2.322;2023-04-28T08:10:13;1.70;;;1.70;;
819;SDS011;392;48.838;2.322;2023-04-28T08:12:40;2.00;;;1.90;;
819;SDS011;392;48.838;2.322;2023-04-28T08:15:10;1.73;;;1.73;;
819;SDS011;392;48.838;2.322;2023-04-28T08:17:38;1.73;;;1.73;;
819;SDS011;392;48.838;2.322;2023-04-28T08:20:06;2.57;;;2.40;;
819;SDS011;392;48.838;2.322;2023-04-28T08:22:35;2.23;;;2.13;;
819;SDS011;392;48.838;2.322;2023-04-28T08:25:02;1.93;;;1.90;;
819;SDS011;392;48.838;2.322;2023-04-28T08:27:30;2.00;;;1.90;;
819;SDS011;392;48.838;2.322;2023-04-28T08:29:58;2.00;;;2.00;;
819;SDS011;392;48.838;2.322;2023-04-28T08:32:27;1.70;;;1.70;;
819;SDS011;392;48.838;2.322;2023-04-28T08:34:54;2.60;;;2.30;;
819;SDS011;392;48.838;2.322;2023-04-28T08:37:21;2.27;;;2.10;;
819;SDS011;392;48.838;2.322;2023-04-28T08:39:49;2.40;;;2.30;;
819;SDS011;392;48.838;2.322;2023-04-28T08:42:24;1.97;;;1.87;;
819;SDS011;392;48.838;2.322;2023-04-28T08:44:54;1.73;;;1.63;;
819;SDS011;392;48.838;2.322;2023-04-28T08:47:24;2.07;;;1.97;;
819;SDS011;392;48.838;2.322;2023-04-28T08:50:01;2.67;;;2.57;;
819;SDS011;392;48.838;2.322;2023-04-28T08:52:30;2.20;;;2.00;;
819;SDS011;392;48.838;2.322;2023-04-28T08:54:59;2.33;;;2.23;;
819;SDS011;392;48.838;2.322;2023-04-28T08:57:32;2.60;;;2.50;;
819;SDS011;392;48.838;2.322;2023-04-28T09:00:05;2.07;;;1.97;;
819;SDS011;392;48.838;2.322;2023-04-28T09:02:34;2.30;;;2.20;;
819;SDS011;392;48.838;2.322;2023-04-28T09:05:02;3.20;;;2.17;;
819;SDS011;392;48.838;2.322;2023-04-28T09:07:32;2.40;;;2.20;;
819;SDS011;392;48.838;2.322;2023-04-28T09:10:16;2.13;;;2.03;;
819;SDS011;392;48.838;2.322;2023-04-28T09:12:45;1.73;;;1.73;;
819;SDS011;392;48.838;2.322;2023-04-28T09:15:27;3.13;;;1.90;;
819;SDS011;392;48.838;2.322;2023-04-28T09:17:57;2.40;;;2.20;;
819;SDS011;392;48.838;2.322;2023-04-28T09:20:25;2.50;;;2.40;;
819;SDS011;392;48.838;2.322;2023-04-28T09:22:55;2.40;;;2.20;;
819;SDS011;392;48.838;2.322;2023-04-28T09:25:38;2.43;;;2.23;;
819;SDS011;392;48.838;2.322;2023-04-28T09:28:13;2.80;;;2.70;;
819;SDS011;392;48.838;2.322;2023-04-28T09:30:47;2.60;;;2.40;;
819;SDS011;392;48.838;2.322;2023-04-28T09:33:15;2.30;;;2.20;;
819;SDS011;392;48.838;2.322;2023-04-28T09:35:43;2.57;;;2.47;;
819;SDS011;392;48.838;2.322;2023-04-28T09:38:11;2.43;;;2.23;;
819;SDS011;392;48.838;2.322;2023-04-28T09:40:49;2.07;;;2.07;;
819;SDS011;392;48.838;2.322;2023-04-28T09:43:26;2.23;;;2.13;;
819;SDS011;392;48.838;2.322;2023-04-28T09:45:56;2.57;;;2.37;;
819;SDS011;392;48.838;2.322;2023-04-28T09:48:30;2.90;;;2.70;;
819;SDS011;392;48.838;2.322;2023-04-28T09:50:59;2.03;;;1.90;;
819;SDS011;392;48.838;2.322;2023-04-28T09:53:28;2.00;;;1.90;;
819;SDS011;392;48.838;2.322;2023-04-28T09:55:58;2.67;;;2.00;;
819;SDS011;392;48.838;2.322;2023-04-28T09:58:28;2.30;;;2.20;;
819;SDS011;392;48.838;2.322;2023-04-28T10:00:57;2.43;;;2.33;;
819;SDS011;392;48.838;2.322;2023-04-28T10:03:26;3.73;;;3.37;;
819;SDS011;392;48.838;2.322;2023-04-28T10:05:57;2.47;;;2.37;;
819;SDS011;392;48.838;2.322;2023-04-28T10:08:25;2.90;;;2.33;;
819;SDS011;392;48.838;2.322;2023-04-28T10:10:53;3.10;;;2.43;;
819;SDS011;392;48.838;2.322;2023-04-28T10:13:22;2.43;;;2.33;;
819;SDS011;392;48.838;2.322;2023-04-28T10:15:51;3.30;;;3.00;;
819;SDS011;392;48.838;2.322;2023-04-28T10:18:19;2.17;;;2.07;;
819;SDS011;392;48.838;2.322;2023-04-28T10:20:52;2.27;;;2.17;;
819;SDS011;392;48.838;2.322;2023-04-28T10:23:34;1.70;;;1.60;;
819;SDS011;392;48.838;2.322;2023-04-28T10:29:32;1.90;;;1.80;;
819;SDS011;392;48.838;2.322;2023-04-28T10:32:18;1.67;;;1.67;;
819;SDS011;392;48.838;2.322;2023-04-28T10:34:48;4.07;;;3.47;;
819;SDS011;392;48.838;2.322;2023-04-28T10:37:17;1.90;;;1.80;;
819;SDS011;392;48.838;2.322;2023-04-28T10:42:59;2.00;;;1.90;;
819;SDS011;392;48.838;2.322;2023-04-28T10:48:51;2.27;;;2.17;;
819;SDS011;392;48.838;2.322;2023-04-28T10:51:25;2.03;;;1.93;;
819;SDS011;392;48.838;2.322;2023-04-28T10:54:09;1.83;;;1.80;;
819;SDS011;392;48.838;2.322;2023-04-28T10:59:47;2.23;;;2.23;;
819;SDS011;392;48.838;2.322;2023-04-28T11:05:11;2.30;;;2.30;;
819;SDS011;392;48.838;2.322;2023-04-28T11:07:40;2.57;;;2.47;;
819;SDS011;392;48.838;2.322;2023-04-28T11:10:09;2.97;;;2.87;;
819;SDS011;392;48.838;2.322;2023-04-28T11:12:36;3.00;;;2.90;;
819;SDS011;392;48.838;2.322;2023-04-28T11:16:01;4.00;;;3.90;;
819;SDS011;392;48.838;2.322;2023-04-28T11:18:29;4.30;;;4.20;;
819;SDS011;392;48.838;2.322;2023-04-28T11:21:07;5.20;;;5.00;;
819;SDS011;392;48.838;2.322;2023-04-28T11:23:35;5.23;;;5.03;;
819;SDS011;392;48.838;2.322;2023-04-28T11:26:04;4.30;;;4.20;;
819;SDS011;392;48.838;2.322;2023-04-28T11:28:31;4.60;;;4.40;;
819;SDS011;392;48.838;2.322;2023-04-28T11:31:09;5.80;;;5.70;;
819;SDS011;392;48.838;2.322;2023-04-28T11:33:37;5.87;;;5.67;;
819;SDS011;392;48.838;2.322;2023-04-28T11:36:05;5.40;;;5.13;;
819;SDS011;392;48.838;2.322;2023-04-28T11:38:41;5.93;;;5.73;;
819;SDS011;392;48.838;2.322;2023-04-28T11:41:10;6.43;;;6.30;;
819;SDS011;392;48.838;2.322;2023-04-28T11:43:39;6.00;;;5.80;;
819;SDS011;392;48.838;2.322;2023-04-28T11:46:06;5.57;;;5.30;;
819;SDS011;392;48.838;2.322;2023-04-28T11:48:34;8.00;;;7.17;;
819;SDS011;392;48.838;2.322;2023-04-28T11:51:02;5.50;;;5.20;;
819;SDS011;392;48.838;2.322;2023-04-28T11:53:42;4.73;;;4.63;;
819;SDS011;392;48.838;2.322;2023-04-28T11:56:11;4.37;;;4.27;;
819;SDS011;392;48.838;2.322;2023-04-28T11:58:39;6.30;;;6.20;;
819;SDS011;392;48.838;2.322;2023-04-28T12:01:07;5.80;;;5.60;;
819;SDS011;392;48.838;2.322;2023-04-28T12:03:41;5.60;;;5.50;;
819;SDS011;392;48.838;2.322;2023-04-28T12:06:09;6.50;;;6.20;;
819;SDS011;392;48.838;2.322;2023-04-28T12:08:37;6.77;;;6.50;;
819;SDS011;392;48.838;2.322;2023-04-28T12:11:07;5.70;;;5.60;;
819;SDS011;392;48.838;2.322;2023-04-28T12:13:37;5.70;;;5.60;;
819;SDS011;392;48.838;2.322;2023-04-28T12:16:05;5.73;;;5.50;;
819;SDS011;392;48.838;2.322;2023-04-28T12:18:34;5.90;;;5.70;;
819;SDS011;392;48.838;2.322;2023-04-28T12:21:03;5.67;;;5.50;;
819;SDS011;392;48.838;2.322;2023-04-28T12:23:31;7.30;;;7.10;;
819;SDS011;392;48.838;2.322;2023-04-28T12:26:01;5.90;;;5.70;;
819;SDS011;392;48.838;2.322;2023-04-28T12:28:39;5.80;;;5.60;;
819;SDS011;392;48.838;2.322;2023-04-28T12:31:07;5.80;;;5.60;;
819;SDS011;392;48.838;2.322;2023-04-28T12:33:35;5.70;;;5.60;;
819;SDS011;392;48.838;2.322;2023-04-28T12:36:03;6.23;;;5.80;;
819;SDS011;392;48.838;2.322;2023-04-28T12:38:31;4.90;;;4.80;;
819;SDS011;392;48.838;2.322;2023-04-28T12:40:59;6.33;;;5.73;;
819;SDS011;392;48.838;2.322;2023-04-28T12:43:26;4.67;;;4.57;;
819;SDS011;392;48.838;2.322;2023-04-28T12:45:55;4.33;;;4.13;;
819;SDS011;392;48.838;2.322;2023-04-28T12:48:22;3.47;;;3.37;;
819;SDS011;392;48.838;2.322;2023-04-28T12:50:49;2.80;;;2.70;;
819;SDS011;392;48.838;2.322;2023-04-28T12:53:17;2.97;;;2.87;;
819;SDS011;392;48.838;2.322;2023-04-28T12:55:44;2.97;;;2.87;;
819;SDS011;392;48.838;2.322;2023-04-28T12:58:11;2.63;;;2.60;;
819;SDS011;392;48.838;2.322;2023-04-28T13:00:39;3.17;;;2.97;;
819;SDS011;392;48.838;2.322;2023-04-28T13:03:08;3.00;;;2.90;;
819;SDS011;392;48.838;2.322;2023-04-28T13:05:35;2.80;;;2.70;;
819;SDS011;392;48.838;2.322;2023-04-28T13:08:03;3.30;;;3.10;;
819;SDS011;392;48.838;2.322;2023-04-28T13:10:30;2.80;;;2.80;;
819;SDS011;392;48.838;2.322;2023-04-28T13:12:58;3.40;;;3.20;;
819;SDS011;392;48.838;2.322;2023-04-28T13:15:25;3.60;;;3.50;;
819;SDS011;392;48.838;2.322;2023-04-28T13:17:52;3.30;;;3.30;;
819;SDS011;392;48.838;2.322;2023-04-28T13:20:21;3.20;;;3.20;;
819;SDS011;392;48.838;2.322;2023-04-28T13:22:48;3.33;;;3.23;;
819;SDS011;392;48.838;2.322;2023-04-28T13:25:16;3.30;;;3.20;;
819;SDS011;392;48.838;2.322;2023-04-28T13:27:43;4.60;;;4.50;;
819;SDS011;392;48.838;2.322;2023-04-28T13:30:11;3.90;;;3.70;;
819;SDS011;392;48.838;2.322;2023-04-28T13:32:39;3.10;;;3.00;;
819;SDS011;392;48.838;2.322;2023-04-28T13:35:06;3.30;;;3.10;;
819;SDS011;392;48.838;2.322;2023-04-28T13:37:35;4.43;;;4.33;;
819;SDS011;392;48.838;2.322;2023-04-28T13:40:07;3.23;;;3.13;;
819;SDS011;392;48.838;2.322;2023-04-28T13:42:36;2.83;;;2.83;;
819;SDS011;392;48.838;2.322;2023-04-28T13:45:04;2.70;;;2.60;;
819;SDS011;392;48.838;2.322;2023-04-28T13:47:34;2.70;;;2.60;;
819;SDS011;392;48.838;2.322;2023-04-28T13:50:03;2.57;;;2.47;;
819;SDS011;392;48.838;2.322;2023-04-28T13:52:31;2.50;;;2.50;;
819;SDS011;392;48.838;2.322;2023-04-28T13:54:59;2.30;;;2.30;;
819;SDS011;392;48.838;2.322;2023-04-28T13:57:27;2.50;;;2.50;;
819;SDS011;392;48.838;2.322;2023-04-28T13:59:55;2.20;;;2.10;;
819;SDS011;392;48.838;2.322;2023-04-28T14:02:22;4.80;;;4.60;;
819;SDS011;392;48.838;2.322;2023-04-28T14:04:49;2.60;;;2.07;;
819;SDS011;392;48.838;2.322;2023-04-28T14:07:17;2.50;;;2.30;;
819;SDS011;392;48.838;2.322;2023-04-28T14:09:45;2.20;;;2.13;;
819;SDS011;392;48.838;2.322;2023-04-28T14:12:14;1.90;;;1.83;;
819;SDS011;392;48.838;2.322;2023-04-28T14:14:41;1.80;;;1.80;;
819;SDS011;392;48.838;2.322;2023-04-28T14:17:08;2.30;;;2.20;;
819;SDS011;392;48.838;2.322;2023-04-28T14:19:36;2.00;;;2.00;;
819;SDS011;392;48.838;2.322;2023-04-28T14:22:04;2.27;;;2.17;;
819;SDS011;392;48.838;2.322;2023-04-28T14:24:31;1.97;;;1.80;;
819;SDS011;392;48.838;2.322;2023-04-28T14:26:58;2.03;;;1.90;;
819;SDS011;392;48.838;2.322;2023-04-28T14:29:27;1.67;;;1.67;;
819;SDS011;392;48.838;2.322;2023-04-28T14:31:54;2.63;;;2.53;;
819;SDS011;392;48.838;2.322;2023-04-28T14:34:21;1.80;;;1.70;;
819;SDS011;392;48.838;2.322;2023-04-28T14:36:49;2.00;;;2.00;;
819;SDS011;392;48.838;2.322;2023-04-28T14:39:17;1.90;;;1.80;;
819;SDS011;392;48.838;2.322;2023-04-28T14:41:44;1.83;;;1.73;;
819;SDS011;392;48.838;2.322;2023-04-28T14:44:11;1.80;;;1.80;;
819;SDS011;392;48.838;2.322;2023-04-28T14:46:40;2.30;;;2.20;;
819;SDS011;392;48.838;2.322;2023-04-28T14:49:08;2.00;;;2.00;;
819;SDS011;392;48.838;2.322;2023-04-28T14:51:35;1.73;;;1.73;;
819;SDS011;392;48.838;2.322;2023-04-28T14:54:02;2.20;;;2.20;;
819;SDS011;392;48.838;2.322;2023-04-28T14:56:30;1.90;;;1.90;;
819;SDS011;392;48.838;2.322;2023-04-28T14:58:57;2.27;;;2.13;;
819;SDS011;392;48.838;2.322;2023-04-28T15:01:25;2.10;;;2.00;;
819;SDS011;392;48.838;2.322;2023-04-28T15:03:53;1.30;;;1.30;;
819;SDS011;392;48.838;2.322;2023-04-28T15:06:21;1.60;;;1.60;;
819;SDS011;392;48.838;2.322;2023-04-28T15:08:48;2.03;;;1.93;;
819;SDS011;392;48.838;2.322;2023-04-28T15:11:15;1.90;;;1.90;;
819;SDS011;392;48.838;2.322;2023-04-28T15:13:42;1.67;;;1.57;;
819;SDS011;392;48.838;2.322;2023-04-28T15:16:10;1.63;;;1.60;;
819;SDS011;392;48.838;2.322;2023-04-28T15:18:37;2.20;;;1.50;;
819;SDS011;392;48.838;2.322;2023-04-28T15:21:06;1.50;;;1.40;;
819;SDS011;392;48.838;2.322;2023-04-28T15:23:33;2.70;;;2.50;;
819;SDS011;392;48.838;2.322;2023-04-28T15:26:01;1.90;;;1.80;;
819;SDS011;392;48.838;2.322;2023-04-28T15:28:29;1.83;;;1.83;;
819;SDS011;392;48.838;2.322;2023-04-28T15:30:56;1.70;;;1.70;;
819;SDS011;392;48.838;2.322;2023-04-28T15:33:24;1.97;;;1.87;;
819;SDS011;392;48.838;2.322;2023-04-28T15:35:51;1.90;;;1.90;;
819;SDS011;392;48.838;2.322;2023-04-28T15:38:20;1.57;;;1.57;;
819;SDS011;392;48.838;2.322;2023-04-28T15:40:47;2.77;;;2.27;;
819;SDS011;392;48.838;2.322;2023-04-28T15:43:14;2.10;;;2.10;;
819;SDS011;392;48.838;2.322;2023-04-28T15:45:41;2.07;;;2.07;;
819;SDS011;392;48.838;2.322;2023-04-28T15:48:09;1.77;;;1.77;;
819;SDS011;392;48.838;2.322;2023-04-28T15:50:36;2.13;;;2.03;;
819;SDS011;392;48.838;2.322;2023-04-28T15:53:04;1.87;;;1.77;;
819;SDS011;392;48.838;2.322;2023-04-28T15:55:33;2.10;;;2.00;;
819;SDS011;392;48.838;2.322;2023-04-28T15:58:01;1.57;;;1.57;;
819;SDS011;392;48.838;2.322;2023-04-28T16:00:28;1.97;;;1.87;;
819;SDS011;392;48.838;2.322;2023-04-28T16:02:56;2.30;;;2.20;;
819;SDS011;392;48.838;2.322;2023-04-28T16:05:25;2.13;;;2.03;;
819;SDS011;392;48.838;2.322;2023-04-28T16:07:52;3.00;;;2.63;;
819;SDS011;392;48.838;2.322;2023-04-28T16:10:20;3.67;;;3.07;;
819;SDS011;392;48.838;2.322;2023-04-28T16:12:48;2.70;;;2.07;;